Time;durP1;ratioP1;P1;durP2;ratioP2;P2;SDS_P1;SDS_P2;PMS_P1;PMS_P2;Temp;Humidity;BMP_temperature;BMP_pressure;BME280_temperature;BME280_humidity;BME280_pressure;Samples;Min_cycle;Max_cycle;Signal;HPM_P1;HPM_P2
2023/10/27 00:00:37;;;;;;;70.00;12.73;;;;;;;;;;4962357;28;20051;-62
2023/10/27 00:03:04;;;;;;;31.27;10.77;;;;;;;;;;4961618;28;20070;-62
2023/10/27 00:05:31;;;;;;;49.33;11.65;;;;;;;;;;4967279;28;20043;-65
2023/10/27 00:07:58;;;;;;;32.70;11.25;;;;;;;;;;4963774;28;20089;-62
2023/10/27 00:10:25;;;;;;;38.53;11.60;;;;;;;;;;4964008;28;20038;-62
2023/10/27 00:12:51;;;;;;;46.50;12.20;;;;;;;;;;4966056;28;20057;-62
2023/10/27 00:15:18;;;;;;;33.60;11.55;;;;;;;;;;4962473;28;20067;-62
2023/10/27 00:17:45;;;;;;;33.85;11.73;;;;;;;;;;4948139;28;20047;-61
2023/10/27 00:20:12;;;;;;;33.92;10.93;;;;;;;;;;4959673;28;20043;-62
2023/10/27 00:22:39;;;;;;;24.02;9.68;;;;;;;;;;4952692;28;20078;-62
2023/10/27 00:25:05;;;;;;;45.35;11.95;;;;;;;;;;4946723;28;20047;-62
2023/10/27 00:27:32;;;;;;;73.07;13.10;;;;;;;;;;4965229;28;20116;-64
2023/10/27 00:30:00;;;;;;;47.25;11.60;;;;;;;;;;4962003;28;20070;-62
2023/10/27 00:32:26;;;;;;;29.65;10.88;;;;;;;;;;4961166;28;20051;-62
2023/10/27 00:34:53;;;;;;;30.30;10.65;;;;;;;;;;4964020;28;20035;-62
2023/10/27 00:37:21;;;;;;;27.52;9.73;;;;;;;;;;4954472;28;20105;-62
2023/10/27 00:39:47;;;;;;;71.63;12.77;;;;;;;;;;4946492;28;20055;-61
2023/10/27 00:42:16;;;;;;;20.17;9.57;;;;;;;;;;4962108;28;20057;-62
2023/10/27 00:44:42;;;;;;;38.90;10.73;;;;;;;;;;4966504;28;20110;-62
2023/10/27 00:47:09;;;;;;;26.83;9.52;;;;;;;;;;4944554;28;20051;-61
2023/10/27 00:49:36;;;;;;;34.10;9.65;;;;;;;;;;4964074;28;20047;-61
2023/10/27 00:52:03;;;;;;;33.75;9.93;;;;;;;;;;4963643;28;20175;-62
2023/10/27 00:54:29;;;;;;;32.35;10.63;;;;;;;;;;4944908;28;20086;-64
2023/10/27 00:56:57;;;;;;;41.58;10.07;;;;;;;;;;4953699;28;20046;-64
2023/10/27 00:59:24;;;;;;;40.28;11.27;;;;;;;;;;4952965;28;20046;-62
2023/10/27 01:01:50;;;;;;;37.83;10.32;;;;;;;;;;4961799;28;20047;-63
2023/10/27 01:04:17;;;;;;;31.35;10.23;;;;;;;;;;4947667;28;20044;-62
2023/10/27 01:06:44;;;;;;;71.63;12.68;;;;;;;;;;4943062;28;20049;-62
2023/10/27 01:09:11;;;;;;;34.70;10.75;;;;;;;;;;4926329;29;20082;-61
2023/10/27 01:11:38;;;;;;;39.08;11.57;;;;;;;;;;4926605;29;20108;-62
2023/10/27 01:14:05;;;;;;;30.45;10.80;;;;;;;;;;4946700;28;20043;-62
2023/10/27 01:16:31;;;;;;;42.15;10.52;;;;;;;;;;4946397;28;20035;-62
2023/10/27 01:18:58;;;;;;;39.72;11.02;;;;;;;;;;4944092;28;20035;-61
2023/10/27 01:21:26;;;;;;;33.97;10.38;;;;;;;;;;4928392;29;20054;-62
2023/10/27 01:23:52;;;;;;;28.55;8.95;;;;;;;;;;4946958;28;20055;-61
2023/10/27 01:26:19;;;;;;;30.92;9.70;;;;;;;;;;4943779;28;20051;-62
2023/10/27 01:28:45;;;;;;;41.83;10.48;;;;;;;;;;4947110;28;20047;-61
2023/10/27 01:31:12;;;;;;;41.08;11.57;;;;;;;;;;4938152;29;20047;-62
2023/10/27 01:33:39;;;;;;;69.38;12.38;;;;;;;;;;4947078;28;20044;-62
2023/10/27 01:36:06;;;;;;;37.70;11.10;;;;;;;;;;4949579;28;20071;-62
2023/10/27 01:38:32;;;;;;;35.63;10.77;;;;;;;;;;4951784;28;20039;-63
2023/10/27 01:40:59;;;;;;;32.05;10.52;;;;;;;;;;4942248;29;20489;-66
2023/10/27 01:43:26;;;;;;;34.10;10.25;;;;;;;;;;4933474;29;20047;-62
2023/10/27 01:45:55;;;;;;;39.88;10.38;;;;;;;;;;4933343;28;20126;-63
2023/10/27 01:48:22;;;;;;;26.50;9.73;;;;;;;;;;4949648;29;20052;-63
2023/10/27 01:50:49;;;;;;;33.88;9.68;;;;;;;;;;4949009;28;20051;-61
2023/10/27 01:53:16;;;;;;;32.80;11.05;;;;;;;;;;4953404;28;20628;-62
2023/10/27 01:55:42;;;;;;;31.15;9.75;;;;;;;;;;4953393;28;20063;-62
2023/10/27 01:58:09;;;;;;;38.63;10.15;;;;;;;;;;4952434;28;20765;-62
2023/10/27 02:04:08;;;;;;;36.72;10.35;;;;;;;;;;1338394;26;20078;-61
2023/10/27 02:06:35;;;;;;;55.50;11.10;;;;;;;;;;4955494;28;20101;-63
2023/10/27 02:09:01;;;;;;;39.92;10.85;;;;;;;;;;4955518;28;20416;-62
2023/10/27 02:11:28;;;;;;;25.35;9.02;;;;;;;;;;4938380;29;20043;-61
2023/10/27 02:13:55;;;;;;;30.80;9.75;;;;;;;;;;4955198;28;20039;-61
2023/10/27 02:16:21;;;;;;;31.80;9.93;;;;;;;;;;4955318;28;20114;-63
2023/10/27 02:18:48;;;;;;;79.45;12.30;;;;;;;;;;4955006;28;20126;-63
2023/10/27 02:21:15;;;;;;;54.95;9.50;;;;;;;;;;4938140;29;20053;-61
2023/10/27 02:23:42;;;;;;;21.08;8.90;;;;;;;;;;4940276;29;20051;-61
2023/10/27 02:26:08;;;;;;;32.45;9.30;;;;;;;;;;4955198;28;20044;-62
2023/10/27 02:28:37;;;;;;;29.50;8.75;;;;;;;;;;4955217;28;20047;-62
2023/10/27 02:31:04;;;;;;;36.70;9.82;;;;;;;;;;4951468;28;20129;-63
2023/10/27 02:33:31;;;;;;;36.65;10.13;;;;;;;;;;4936549;29;20408;-61
2023/10/27 02:35:57;;;;;;;41.03;9.43;;;;;;;;;;4937707;29;20396;-62
2023/10/27 02:38:24;;;;;;;21.00;8.88;;;;;;;;;;4937791;29;20054;-61
2023/10/27 02:40:51;;;;;;;36.53;9.25;;;;;;;;;;4954074;28;20079;-62
2023/10/27 02:43:17;;;;;;;37.63;10.25;;;;;;;;;;4954346;28;20050;-60
2023/10/27 02:45:44;;;;;;;60.25;10.90;;;;;;;;;;4955040;28;20047;-60
2023/10/27 02:48:11;;;;;;;17.83;9.13;;;;;;;;;;4951493;29;20104;-61
2023/10/27 02:50:38;;;;;;;53.92;10.80;;;;;;;;;;4969563;28;20052;-62
2023/10/27 02:53:04;;;;;;;24.58;8.95;;;;;;;;;;4954454;28;20078;-61
2023/10/27 02:55:34;;;;;;;32.88;9.13;;;;;;;;;;4937163;29;20051;-62
2023/10/27 02:58:01;;;;;;;41.55;9.80;;;;;;;;;;4954148;28;20138;-62
2023/10/27 03:00:28;;;;;;;25.60;9.63;;;;;;;;;;4954836;29;20114;-61
2023/10/27 03:02:54;;;;;;;24.08;9.18;;;;;;;;;;4954050;28;20043;-61
2023/10/27 03:05:21;;;;;;;40.15;9.93;;;;;;;;;;4936665;29;20043;-62
2023/10/27 03:07:48;;;;;;;36.05;10.15;;;;;;;;;;4936689;29;20059;-62
2023/10/27 03:10:14;;;;;;;34.47;9.13;;;;;;;;;;4937354;29;20074;-62
2023/10/27 03:12:41;;;;;;;71.75;11.65;;;;;;;;;;4937145;28;20051;-62
2023/10/27 03:15:09;;;;;;;24.85;9.43;;;;;;;;;;4938027;29;20074;-60
2023/10/27 03:17:35;;;;;;;25.55;9.15;;;;;;;;;;4969076;28;20416;-61
2023/10/27 03:20:04;;;;;;;37.78;9.60;;;;;;;;;;4949008;28;20048;-62
2023/10/27 03:22:32;;;;;;;36.25;9.27;;;;;;;;;;4937063;29;20056;-61
2023/10/27 03:24:59;;;;;;;25.25;9.07;;;;;;;;;;4954337;28;20051;-60
2023/10/27 03:27:26;;;;;;;36.85;9.77;;;;;;;;;;4954995;28;20512;-61
2023/10/27 03:29:53;;;;;;;40.58;9.85;;;;;;;;;;4954332;28;20043;-61
2023/10/27 03:32:19;;;;;;;29.88;9.13;;;;;;;;;;4953757;28;20043;-61
2023/10/27 03:34:46;;;;;;;32.47;8.90;;;;;;;;;;4936596;29;20187;-62
2023/10/27 03:37:13;;;;;;;26.92;8.80;;;;;;;;;;4936722;29;20054;-63
2023/10/27 03:39:40;;;;;;;66.75;11.25;;;;;;;;;;4968947;28;20107;-65
2023/10/27 03:42:09;;;;;;;52.72;9.93;;;;;;;;;;4937048;29;20049;-61
2023/10/27 03:44:36;;;;;;;24.75;9.77;;;;;;;;;;4953751;28;20118;-61
2023/10/27 03:47:04;;;;;;;26.05;9.00;;;;;;;;;;4936514;29;20039;-62
2023/10/27 03:49:30;;;;;;;57.35;10.82;;;;;;;;;;4936643;29;20043;-63
2023/10/27 03:51:59;;;;;;;46.58;10.23;;;;;;;;;;4953522;28;20465;-62
2023/10/27 03:54:25;;;;;;;32.58;9.77;;;;;;;;;;4969209;28;20071;-61
2023/10/27 03:56:52;;;;;;;37.35;9.82;;;;;;;;;;4953223;28;20043;-63
2023/10/27 03:59:19;;;;;;;53.60;11.52;;;;;;;;;;4953033;28;20090;-62
2023/10/27 04:01:46;;;;;;;41.42;10.00;;;;;;;;;;4932459;29;20054;-62
2023/10/27 04:04:14;;;;;;;42.80;11.02;;;;;;;;;;4953358;28;20143;-63
2023/10/27 04:06:41;;;;;;;74.35;13.60;;;;;;;;;;4950800;28;20070;-63
2023/10/27 04:09:07;;;;;;;33.83;11.48;;;;;;;;;;4954007;28;20050;-61
2023/10/27 04:11:34;;;;;;;51.13;13.73;;;;;;;;;;4952962;28;20043;-62
2023/10/27 04:14:01;;;;;;;36.22;11.38;;;;;;;;;;4953198;28;20054;-63
2023/10/27 04:16:27;;;;;;;39.55;12.02;;;;;;;;;;4953223;28;20130;-62
2023/10/27 04:18:54;;;;;;;49.97;12.93;;;;;;;;;;4953084;28;20123;-61
2023/10/27 04:21:21;;;;;;;33.20;12.45;;;;;;;;;;4954265;29;20050;-62
2023/10/27 04:23:48;;;;;;;30.17;12.55;;;;;;;;;;4950361;28;20050;-62
2023/10/27 04:26:15;;;;;;;49.10;11.77;;;;;;;;;;4967573;28;20043;-62
2023/10/27 04:28:42;;;;;;;48.50;11.55;;;;;;;;;;4952210;28;20047;-61
2023/10/27 04:31:09;;;;;;;31.60;10.27;;;;;;;;;;4952939;28;20047;-61
2023/10/27 04:33:39;;;;;;;50.42;11.50;;;;;;;;;;4953533;28;20671;-61
2023/10/27 04:36:05;;;;;;;38.25;10.80;;;;;;;;;;4967934;28;20138;-61
2023/10/27 04:38:32;;;;;;;36.05;10.07;;;;;;;;;;4949707;28;20429;-64
2023/10/27 04:40:59;;;;;;;24.25;9.23;;;;;;;;;;4952912;28;20424;-61
2023/10/27 04:43:25;;;;;;;32.20;10.25;;;;;;;;;;4953540;28;20127;-61
2023/10/27 04:45:52;;;;;;;80.97;13.38;;;;;;;;;;4967723;28;20051;-63
2023/10/27 04:48:19;;;;;;;31.88;10.35;;;;;;;;;;4953952;29;20472;-61
2023/10/27 04:50:51;;;;;;;29.73;10.18;;;;;;;;;;4953018;28;20046;-62
2023/10/27 04:53:18;;;;;;;26.42;10.10;;;;;;;;;;4949215;28;20043;-62
2023/10/27 04:55:44;;;;;;;39.22;10.30;;;;;;;;;;4935593;29;20047;-61
2023/10/27 04:58:11;;;;;;;33.45;9.90;;;;;;;;;;4952834;28;20097;-61
2023/10/27 05:00:38;;;;;;;59.97;11.45;;;;;;;;;;4935859;28;20100;-61
2023/10/27 05:03:05;;;;;;;30.42;9.77;;;;;;;;;;4953425;28;20044;-62
2023/10/27 05:05:31;;;;;;;41.40;10.70;;;;;;;;;;4952059;28;20098;-62
2023/10/27 05:07:58;;;;;;;45.08;10.38;;;;;;;;;;4952082;28;20106;-61
2023/10/27 05:10:25;;;;;;;30.52;9.98;;;;;;;;;;4952843;28;20047;-61
2023/10/27 05:12:51;;;;;;;76.40;11.27;;;;;;;;;;4952694;28;20071;-62
2023/10/27 05:15:18;;;;;;;32.10;9.98;;;;;;;;;;4952574;29;20059;-63
2023/10/27 05:17:46;;;;;;;42.10;10.98;;;;;;;;;;4935235;29;20055;-62
2023/10/27 05:20:13;;;;;;;29.02;10.30;;;;;;;;;;4967193;28;20043;-62
2023/10/27 05:22:39;;;;;;;28.70;10.82;;;;;;;;;;4950631;28;20055;-62
2023/10/27 05:25:06;;;;;;;40.10;11.07;;;;;;;;;;4941240;28;20429;-62
2023/10/27 05:27:33;;;;;;;37.28;10.43;;;;;;;;;;4950000;29;20500;-61
2023/10/27 05:30:00;;;;;;;28.92;9.82;;;;;;;;;;4929520;29;20404;-62
2023/10/27 05:32:27;;;;;;;22.67;9.07;;;;;;;;;;4952429;28;20045;-61
2023/10/27 05:34:54;;;;;;;33.85;9.95;;;;;;;;;;4952479;28;20073;-62
2023/10/27 05:37:21;;;;;;;36.08;9.85;;;;;;;;;;4952572;28;20036;-61
2023/10/27 05:39:48;;;;;;;69.90;12.05;;;;;;;;;;4952571;28;20054;-62
2023/10/27 05:42:15;;;;;;;31.60;10.25;;;;;;;;;;4952902;29;20416;-62
2023/10/27 05:44:41;;;;;;;41.72;11.48;;;;;;;;;;4948714;28;20047;-63
2023/10/27 05:47:08;;;;;;;37.47;11.45;;;;;;;;;;4952348;28;20035;-61
2023/10/27 05:49:35;;;;;;;46.67;11.88;;;;;;;;;;4934752;29;20079;-61
2023/10/27 05:52:03;;;;;;;52.80;11.80;;;;;;;;;;4935334;28;20043;-61
2023/10/27 05:54:30;;;;;;;50.92;12.30;;;;;;;;;;4936065;29;20043;-62
2023/10/27 05:56:57;;;;;;;59.05;12.35;;;;;;;;;;4952075;28;20044;-60
2023/10/27 05:59:23;;;;;;;47.05;11.70;;;;;;;;;;4952004;28;20051;-61
2023/10/27 06:01:53;;;;;;;43.78;10.32;;;;;;;;;;4952109;28;20071;-62
2023/10/27 06:04:40;;;;;;;39.67;10.98;;;;;;;;;;4948174;28;20142;-61
2023/10/27 06:07:06;;;;;;;53.33;11.93;;;;;;;;;;4951782;28;20496;-62
2023/10/27 06:09:34;;;;;;;55.58;12.05;;;;;;;;;;4953073;29;20043;-62
2023/10/27 06:12:01;;;;;;;43.10;10.25;;;;;;;;;;4935216;29;20138;-60
2023/10/27 06:14:28;;;;;;;41.45;10.88;;;;;;;;;;4932359;29;20515;-63
2023/10/27 06:16:54;;;;;;;44.67;10.77;;;;;;;;;;4954536;28;20055;-60
2023/10/27 06:19:21;;;;;;;46.22;10.82;;;;;;;;;;4955142;28;20041;-65
2023/10/27 06:21:48;;;;;;;84.30;12.38;;;;;;;;;;4953735;28;20653;-65
2023/10/27 06:24:15;;;;;;;35.33;10.18;;;;;;;;;;4941433;29;20051;-63
2023/10/27 06:26:41;;;;;;;35.15;9.77;;;;;;;;;;4954181;28;20063;-62
2023/10/27 06:29:08;;;;;;;20.30;9.30;;;;;;;;;;4953978;28;20047;-62
2023/10/27 06:31:35;;;;;;;35.40;9.85;;;;;;;;;;4955239;28;20116;-64
2023/10/27 06:34:01;;;;;;;53.08;10.57;;;;;;;;;;4954352;28;20049;-63
2023/10/27 06:36:30;;;;;;;28.55;9.40;;;;;;;;;;4955579;29;20040;-63
2023/10/27 06:38:56;;;;;;;36.50;9.85;;;;;;;;;;4933987;29;20080;-63
2023/10/27 06:41:23;;;;;;;42.92;10.77;;;;;;;;;;4955066;28;20480;-62
2023/10/27 06:43:50;;;;;;;36.90;11.13;;;;;;;;;;4969673;28;20134;-64
2023/10/27 06:46:16;;;;;;;40.63;10.70;;;;;;;;;;4954926;28;20035;-62
2023/10/27 06:48:43;;;;;;;66.30;12.48;;;;;;;;;;4955363;28;20047;-63
2023/10/27 06:51:10;;;;;;;34.92;10.00;;;;;;;;;;4970824;28;20055;-63
2023/10/27 06:53:36;;;;;;;31.95;9.38;;;;;;;;;;4937781;29;20043;-62
2023/10/27 06:56:04;;;;;;;25.40;9.52;;;;;;;;;;4954826;28;20035;-64
2023/10/27 06:58:31;;;;;;;29.08;9.45;;;;;;;;;;4937592;29;20055;-64
2023/10/27 07:01:05;;;;;;;57.80;10.95;;;;;;;;;;4954767;28;20035;-64
2023/10/27 07:03:32;;;;;;;27.27;9.05;;;;;;;;;;4956112;29;20051;-63
2023/10/27 07:05:59;;;;;;;37.97;9.38;;;;;;;;;;4937394;29;20098;-63
2023/10/27 07:08:26;;;;;;;26.17;9.38;;;;;;;;;;4930639;29;20048;-63
2023/10/27 07:10:57;;;;;;;54.50;11.18;;;;;;;;;;4937164;29;20059;-62
2023/10/27 07:13:25;;;;;;;34.33;10.18;;;;;;;;;;4954643;28;20047;-65
2023/10/27 07:15:51;;;;;;;89.85;13.43;;;;;;;;;;4969050;28;20130;-64
2023/10/27 07:18:19;;;;;;;31.80;10.27;;;;;;;;;;4938251;29;20050;-63
2023/10/27 07:20:46;;;;;;;29.55;10.20;;;;;;;;;;4953829;28;20476;-63
2023/10/27 07:23:13;;;;;;;23.35;10.23;;;;;;;;;;4954286;28;20070;-63
2023/10/27 07:25:40;;;;;;;39.08;10.77;;;;;;;;;;4954343;28;20481;-63
2023/10/27 07:28:08;;;;;;;46.08;11.13;;;;;;;;;;4968492;28;20049;-62
2023/10/27 07:30:34;;;;;;;32.78;10.18;;;;;;;;;;4968634;28;20094;-63
2023/10/27 07:33:01;;;;;;;29.38;10.50;;;;;;;;;;4954458;28;20047;-62
2023/10/27 07:35:28;;;;;;;35.58;10.20;;;;;;;;;;4954474;28;20125;-63
2023/10/27 07:37:54;;;;;;;49.88;10.35;;;;;;;;;;4936732;29;20062;-62
2023/10/27 07:40:21;;;;;;;27.20;10.82;;;;;;;;;;4953967;28;20519;-63
2023/10/27 07:42:48;;;;;;;69.57;13.30;;;;;;;;;;4937115;28;20047;-63
2023/10/27 07:45:15;;;;;;;36.67;9.57;;;;;;;;;;4954576;28;20047;-63
2023/10/27 07:47:43;;;;;;;32.63;8.77;;;;;;;;;;4953793;28;20746;-64
2023/10/27 07:50:10;;;;;;;23.52;8.32;;;;;;;;;;4936359;29;20501;-63
2023/10/27 07:52:37;;;;;;;37.88;9.10;;;;;;;;;;4953582;28;20039;-63
2023/10/27 07:55:06;;;;;;;29.85;8.15;;;;;;;;;;4953934;28;20130;-63
2023/10/27 07:57:34;;;;;;;19.83;7.80;;;;;;;;;;4952237;29;20130;-63
2023/10/27 08:00:02;;;;;;;32.28;7.65;;;;;;;;;;4936090;29;20210;-63
2023/10/27 08:02:33;;;;;;;29.65;7.93;;;;;;;;;;4936406;29;20057;-62
2023/10/27 08:04:59;;;;;;;33.90;8.80;;;;;;;;;;4935906;29;20090;-64
2023/10/27 08:07:26;;;;;;;38.78;8.40;;;;;;;;;;4943156;28;20058;-64
2023/10/27 08:09:53;;;;;;;80.05;12.13;;;;;;;;;;4936110;28;20071;-63
2023/10/27 08:12:20;;;;;;;31.63;7.75;;;;;;;;;;4969412;28;20065;-63
2023/10/27 08:14:47;;;;;;;28.27;8.10;;;;;;;;;;4949756;28;20049;-63
2023/10/27 08:17:14;;;;;;;27.13;8.60;;;;;;;;;;4953431;28;20445;-63
2023/10/27 08:19:41;;;;;;;21.85;7.28;;;;;;;;;;4935822;29;20086;-63
2023/10/27 08:22:07;;;;;;;33.25;7.80;;;;;;;;;;4950277;28;20059;-64
2023/10/27 08:24:36;;;;;;;26.60;7.57;;;;;;;;;;4949592;29;20054;-63
2023/10/27 08:27:03;;;;;;;29.50;7.78;;;;;;;;;;4968188;28;20051;-62
2023/10/27 08:29:29;;;;;;;100.25;12.00;;;;;;;;;;4935315;29;20063;-63
2023/10/27 08:31:56;;;;;;;32.92;7.95;;;;;;;;;;4953013;28;20043;-64
2023/10/27 08:34:22;;;;;;;38.05;8.05;;;;;;;;;;4953202;28;20047;-65
2023/10/27 08:36:49;;;;;;;68.65;9.63;;;;;;;;;;4953140;28;20045;-63
2023/10/27 08:39:16;;;;;;;21.50;6.93;;;;;;;;;;4935637;29;20048;-63
2023/10/27 08:41:42;;;;;;;111.28;12.38;;;;;;;;;;4920244;29;20098;-71
2023/10/27 08:44:09;;;;;;;19.35;5.95;;;;;;;;;;4939515;29;20138;-64
2023/10/27 08:46:51;;;;;;;29.30;6.93;;;;;;;;;;4952668;28;20102;-60
2023/10/27 08:49:18;;;;;;;30.33;6.82;;;;;;;;;;4948169;28;20039;-63
2023/10/27 08:51:46;;;;;;;145.95;13.65;;;;;;;;;;4949121;28;20043;-67
2023/10/27 08:54:12;;;;;;;188.10;16.65;;;;;;;;;;4911288;29;20083;-64
2023/10/27 08:56:39;;;;;;;29.20;7.03;;;;;;;;;;4929298;29;20102;-62
2023/10/27 08:59:09;;;;;;;35.22;6.72;;;;;;;;;;4952704;28;20041;-61
2023/10/27 09:01:36;;;;;;;14.18;6.20;;;;;;;;;;4968055;28;20043;-59
2023/10/27 09:04:10;;;;;;;157.77;13.98;;;;;;;;;;4932608;28;20106;-61
2023/10/27 09:06:38;;;;;;;52.30;7.53;;;;;;;;;;4930449;29;21476;-67
2023/10/27 09:09:06;;;;;;;28.77;5.13;;;;;;;;;;4952363;28;20051;-60
2023/10/27 09:11:43;;;;;;;28.50;5.45;;;;;;;;;;4952035;28;20090;-59
2023/10/27 09:14:23;;;;;;;30.73;5.47;;;;;;;;;;4932919;29;20054;-63
2023/10/27 09:16:51;;;;;;;29.67;5.25;;;;;;;;;;4934208;29;20059;-58
2023/10/27 09:19:22;;;;;;;42.90;5.90;;;;;;;;;;4948212;28;20451;-62
2023/10/27 09:21:49;;;;;;;92.00;8.63;;;;;;;;;;4951400;28;20051;-59
2023/10/27 09:24:22;;;;;;;33.35;5.85;;;;;;;;;;4936025;29;20055;-62
2023/10/27 09:26:48;;;;;;;37.35;6.93;;;;;;;;;;4966035;28;20047;-62
2023/10/27 09:29:16;;;;;;;86.20;8.77;;;;;;;;;;4930111;29;20074;-60
2023/10/27 09:31:43;;;;;;;23.45;5.70;;;;;;;;;;4951759;28;20051;-63
2023/10/27 09:34:31;;;;;;;37.22;6.22;;;;;;;;;;4950272;28;20126;-62
2023/10/27 09:36:58;;;;;;;54.92;7.60;;;;;;;;;;4933181;28;20051;-61
2023/10/27 09:39:26;;;;;;;39.33;6.63;;;;;;;;;;4966808;28;20413;-60
2023/10/27 09:41:55;;;;;;;48.30;7.30;;;;;;;;;;4965528;28;20436;-66
2023/10/27 09:44:27;;;;;;;40.60;6.82;;;;;;;;;;4952975;28;20066;-61
2023/10/27 09:47:01;;;;;;;45.83;7.25;;;;;;;;;;4945487;28;20062;-61
2023/10/27 09:49:32;;;;;;;28.67;7.32;;;;;;;;;;4935144;29;20046;-61
2023/10/27 09:52:02;;;;;;;73.05;9.60;;;;;;;;;;4954747;28;20134;-60
2023/10/27 09:54:30;;;;;;;26.92;6.85;;;;;;;;;;4939707;29;20119;-62
2023/10/27 09:57:00;;;;;;;40.42;7.32;;;;;;;;;;4938744;29;20078;-59
2023/10/27 09:59:28;;;;;;;35.67;7.47;;;;;;;;;;4955110;28;20047;-64
2023/10/27 10:01:55;;;;;;;43.40;7.55;;;;;;;;;;4955312;28;20067;-59
2023/10/27 10:04:41;;;;;;;33.28;6.38;;;;;;;;;;4938028;29;20753;-59
2023/10/27 10:07:10;;;;;;;87.53;9.35;;;;;;;;;;4936318;28;20051;-59
2023/10/27 10:09:40;;;;;;;40.80;7.38;;;;;;;;;;4963166;28;20477;-58
2023/10/27 10:12:10;;;;;;;44.38;7.35;;;;;;;;;;4949374;28;20051;-59
2023/10/27 10:14:37;;;;;;;23.70;6.10;;;;;;;;;;4938458;29;20083;-59
2023/10/27 10:17:08;;;;;;;33.80;6.50;;;;;;;;;;4938258;29;20474;-59
2023/10/27 10:19:56;;;;;;;34.25;6.57;;;;;;;;;;4955578;28;20039;-60
2023/10/27 10:22:38;;;;;;;29.80;6.50;;;;;;;;;;4938280;29;20456;-59
2023/10/27 10:25:14;;;;;;;63.83;11.20;;;;;;;;;;4946187;28;20548;-61
2023/10/27 10:27:59;;;;;;;26.23;7.85;;;;;;;;;;4953994;28;20436;-61
2023/10/27 10:30:26;;;;;;;20.00;5.60;;;;;;;;;;4955459;29;20376;-59
2023/10/27 10:33:16;;;;;;;39.08;6.65;;;;;;;;;;4954974;28;20476;-59
2023/10/27 10:35:43;;;;;;;32.88;6.00;;;;;;;;;;4953714;28;20055;-59
2023/10/27 10:38:22;;;;;;;17.13;4.72;;;;;;;;;;4955224;28;20047;-59
2023/10/27 10:40:50;;;;;;;58.38;6.93;;;;;;;;;;4951374;28;20563;-60
2023/10/27 10:43:20;;;;;;;36.47;5.72;;;;;;;;;;4954976;28;20417;-59
2023/10/27 10:45:50;;;;;;;;;;;;;;;;;;4955592;28;20058;-59
2023/10/27 10:48:18;;;;;;;21.00;4.85;;;;;;;;;;4956036;28;20025;-59
2023/10/27 10:50:46;;;;;;;31.13;5.75;;;;;;;;;;4954565;28;20070;-59
2023/10/27 10:53:15;;;;;;;27.65;5.47;;;;;;;;;;4937592;29;20556;-60
2023/10/27 10:55:46;;;;;;;28.67;5.70;;;;;;;;;;4937888;29;20463;-61
2023/10/27 10:58:25;;;;;;;31.83;5.80;;;;;;;;;;4956845;28;20039;-64
2023/10/27 11:00:52;;;;;;;66.82;7.45;;;;;;;;;;4937184;28;20055;-59
2023/10/27 11:03:21;;;;;;;18.42;4.88;;;;;;;;;;4937574;29;20044;-59
2023/10/27 11:05:48;;;;;;;17.98;5.18;;;;;;;;;;4937530;29;20091;-59
2023/10/27 11:08:25;;;;;;;71.53;8.93;;;;;;;;;;4950474;28;20465;-59
2023/10/27 11:11:05;;;;;;;22.02;5.65;;;;;;;;;;4937055;29;20641;-60
2023/10/27 11:13:33;;;;;;;26.75;5.85;;;;;;;;;;4951635;28;20067;-60
2023/10/27 11:16:04;;;;;;;59.53;7.93;;;;;;;;;;4950706;28;20055;-60
2023/10/27 11:18:33;;;;;;;26.60;5.80;;;;;;;;;;4955741;29;20496;-60
2023/10/27 11:21:00;;;;;;;16.65;5.32;;;;;;;;;;4952746;28;20070;-59
2023/10/27 11:23:27;;;;;;;29.50;6.88;;;;;;;;;;4954453;28;20054;-59
2023/10/27 11:26:02;;;;;;;40.58;6.90;;;;;;;;;;4953983;28;20093;-61
2023/10/27 11:28:29;;;;;;;16.00;5.40;;;;;;;;;;4954195;28;20043;-59
2023/10/27 11:31:00;;;;;;;69.70;8.25;;;;;;;;;;4936948;28;20050;-60
2023/10/27 11:33:27;;;;;;;29.42;6.57;;;;;;;;;;4937114;29;20047;-59
2023/10/27 11:35:54;;;;;;;15.85;5.82;;;;;;;;;;4937027;29;20050;-60
2023/10/27 11:38:25;;;;;;;14.38;5.25;;;;;;;;;;4935706;29;20050;-59
2023/10/27 11:40:52;;;;;;;47.33;7.15;;;;;;;;;;4951660;28;20115;-59
2023/10/27 11:43:19;;;;;;;47.30;7.00;;;;;;;;;;4954146;28;20050;-60
2023/10/27 11:45:46;;;;;;;59.45;8.13;;;;;;;;;;4954227;28;20125;-60
2023/10/27 11:48:13;;;;;;;38.22;6.47;;;;;;;;;;4953751;28;20510;-59
2023/10/27 11:50:40;;;;;;;41.53;7.60;;;;;;;;;;4953609;28;20047;-58
2023/10/27 11:53:06;;;;;;;28.70;6.55;;;;;;;;;;4953410;28;20042;-62
2023/10/27 11:55:33;;;;;;;45.10;7.80;;;;;;;;;;4954126;28;20043;-59
2023/10/27 11:58:00;;;;;;;93.70;9.65;;;;;;;;;;4954268;28;20493;-59
2023/10/27 12:00:27;;;;;;;26.77;5.63;;;;;;;;;;4937267;29;20077;-58
2023/10/27 12:02:53;;;;;;;21.73;5.45;;;;;;;;;;4953467;28;20117;-62
2023/10/27 12:05:20;;;;;;;18.33;5.40;;;;;;;;;;4953467;28;20061;-59
2023/10/27 12:07:47;;;;;;;48.05;6.95;;;;;;;;;;4952801;28;20381;-61
2023/10/27 12:10:14;;;;;;;55.88;7.10;;;;;;;;;;4953455;28;20039;-60
2023/10/27 12:12:40;;;;;;;25.35;5.80;;;;;;;;;;4969153;28;20420;-64
2023/10/27 12:15:07;;;;;;;35.65;6.82;;;;;;;;;;4936061;29;20051;-59
2023/10/27 12:17:34;;;;;;;24.92;6.65;;;;;;;;;;4953137;28;20158;-59
2023/10/27 12:20:01;;;;;;;34.90;6.63;;;;;;;;;;4952927;28;20043;-61
2023/10/27 12:22:29;;;;;;;48.15;7.07;;;;;;;;;;4944308;28;20484;-60
2023/10/27 12:24:56;;;;;;;74.63;8.80;;;;;;;;;;4936046;28;20051;-65
2023/10/27 12:27:23;;;;;;;25.52;6.05;;;;;;;;;;4927647;29;20058;-60
2023/10/27 12:29:50;;;;;;;25.10;6.00;;;;;;;;;;4935877;29;20468;-62
2023/10/27 12:32:17;;;;;;;27.52;5.90;;;;;;;;;;4953256;28;20122;-58
2023/10/27 12:34:45;;;;;;;21.63;5.25;;;;;;;;;;4967903;28;20064;-59
2023/10/27 12:37:12;;;;;;;31.10;5.53;;;;;;;;;;4948989;28;20031;-59
2023/10/27 12:39:42;;;;;;;27.05;5.82;;;;;;;;;;4936710;29;20054;-59
2023/10/27 12:42:10;;;;;;;39.33;5.93;;;;;;;;;;4950262;28;20054;-60
2023/10/27 12:44:37;;;;;;;30.75;5.55;;;;;;;;;;4952131;28;20039;-59
2023/10/27 12:47:04;;;;;;;49.72;6.80;;;;;;;;;;4934604;29;20043;-61
2023/10/27 12:49:30;;;;;;;129.93;11.60;;;;;;;;;;4950088;28;20469;-61
2023/10/27 12:51:57;;;;;;;111.15;9.80;;;;;;;;;;4928141;28;20094;-62
2023/10/27 12:54:24;;;;;;;52.08;6.45;;;;;;;;;;4953517;28;20078;-59
2023/10/27 12:56:51;;;;;;;37.05;5.97;;;;;;;;;;4952183;28;20575;-59
2023/10/27 12:59:18;;;;;;;37.15;5.25;;;;;;;;;;4951038;28;20054;-60
2023/10/27 13:01:45;;;;;;;54.85;6.63;;;;;;;;;;4965610;28;20130;-64
2023/10/27 13:04:12;;;;;;;29.98;5.15;;;;;;;;;;4947564;28;20047;-59
2023/10/27 13:06:39;;;;;;;28.45;5.15;;;;;;;;;;4952024;29;20051;-61
2023/10/27 13:09:06;;;;;;;53.63;6.15;;;;;;;;;;4966250;28;20489;-59
2023/10/27 13:11:33;;;;;;;26.17;4.75;;;;;;;;;;4931712;29;20058;-59
2023/10/27 13:14:00;;;;;;;28.27;5.05;;;;;;;;;;4952026;28;20043;-60
2023/10/27 13:16:27;;;;;;;42.03;5.72;;;;;;;;;;4951746;28;20130;-59
2023/10/27 13:18:54;;;;;;;59.47;6.95;;;;;;;;;;4934860;28;20039;-58
2023/10/27 13:21:21;;;;;;;34.30;5.63;;;;;;;;;;4952932;28;20047;-59
2023/10/27 13:23:49;;;;;;;49.75;6.68;;;;;;;;;;4933969;29;20493;-61
2023/10/27 13:26:15;;;;;;;26.80;5.47;;;;;;;;;;4935548;29;20444;-60
2023/10/27 13:28:45;;;;;;;42.97;6.30;;;;;;;;;;4955866;28;20035;-61
2023/10/27 13:31:11;;;;;;;38.38;7.60;;;;;;;;;;4955658;28;20035;-59
2023/10/27 13:33:38;;;;;;;35.45;7.93;;;;;;;;;;4932742;29;20499;-60
2023/10/27 13:36:11;;;;;;;32.03;7.05;;;;;;;;;;4955560;28;20492;-60
2023/10/27 13:38:38;;;;;;;34.88;7.93;;;;;;;;;;4953130;28;20106;-59
2023/10/27 13:41:12;;;;;;;61.97;9.43;;;;;;;;;;4938592;29;20094;-60
2023/10/27 13:43:39;;;;;;;41.20;7.35;;;;;;;;;;4938580;29;20077;-60
2023/10/27 13:46:05;;;;;;;40.70;6.90;;;;;;;;;;4955685;28;20035;-60
2023/10/27 13:48:33;;;;;;;17.02;5.55;;;;;;;;;;4939728;29;20054;-60
2023/10/27 13:51:06;;;;;;;36.80;7.88;;;;;;;;;;4955587;28;20473;-61
2023/10/27 13:53:33;;;;;;;;;;;;;;;;;;4938777;29;20053;-60
2023/10/27 13:55:59;;;;;;;56.03;12.43;;;;;;;;;;4938464;29;19930;-59
2023/10/27 13:58:27;;;;;;;38.30;9.82;;;;;;;;;;4970452;28;20066;-59
2023/10/27 14:00:53;;;;;;;68.75;12.57;;;;;;;;;;4955460;28;20043;-61
2023/10/27 14:03:20;;;;;;;44.67;12.00;;;;;;;;;;4938864;29;20043;-59
2023/10/27 14:05:49;;;;;;;66.80;19.15;;;;;;;;;;4955416;28;20074;-59
2023/10/27 14:08:16;;;;;;;48.20;14.95;;;;;;;;;;4955171;28;20054;-60
2023/10/27 14:10:42;;;;;;;53.17;13.88;;;;;;;;;;4955655;28;20043;-58
2023/10/27 14:13:09;;;;;;;38.90;9.95;;;;;;;;;;4936348;28;20052;-61
2023/10/27 14:15:36;;;;;;;26.15;8.85;;;;;;;;;;4938746;29;20054;-60
2023/10/27 14:18:04;;;;;;;67.72;23.98;;;;;;;;;;4937876;29;20055;-59
2023/10/27 14:20:31;;;;;;;76.63;28.95;;;;;;;;;;4955484;28;20071;-61
2023/10/27 14:22:57;;;;;;;91.05;32.50;;;;;;;;;;4969611;28;20055;-61
2023/10/27 14:25:27;;;;;;;133.25;48.40;;;;;;;;;;4954956;28;20074;-59
2023/10/27 14:27:54;;;;;;;151.63;46.92;;;;;;;;;;4955146;28;20134;-60
2023/10/27 14:30:20;;;;;;;82.57;36.67;;;;;;;;;;4956173;28;20043;-59
2023/10/27 14:32:47;;;;;;;83.88;25.10;;;;;;;;;;4953322;28;20047;-60